createdAt,value
2022-10-08T00:02:17.541Z,6.74
2022-10-08T00:05:19.338Z,6.71
2022-10-08T00:08:21.471Z,6.68
2022-10-08T00:11:31.789Z,6.65
2022-10-08T00:14:33.903Z,6.55
2022-10-08T00:17:35.659Z,6.49
2022-10-08T00:20:37.658Z,6.45
2022-10-08T00:23:39.332Z,6.43
2022-10-08T00:26:44.072Z,6.38
2022-10-08T00:29:47.193Z,6.28
2022-10-08T00:32:49.609Z,6.23
2022-10-08T00:35:51.874Z,6.22
2022-10-08T00:38:57.817Z,6.22
2022-10-08T00:42:00.335Z,6.22
2022-10-08T00:45:02.187Z,6.17
2022-10-08T00:48:04.368Z,6.09
2022-10-08T00:51:06.229Z,6.05
2022-10-08T00:54:08.206Z,6.03
2022-10-08T00:57:10.151Z,6.02
2022-10-08T01:00:20.647Z,6.02
2022-10-08T01:03:23.162Z,6.01
2022-10-08T01:06:29.986Z,6.01
2022-10-08T01:09:49.337Z,6.01
2022-10-08T01:13:16.930Z,5.97
2022-10-08T01:16:27.585Z,5.92
2022-10-08T01:19:48.984Z,5.92
2022-10-08T01:23:15.354Z,5.93
2022-10-08T01:26:46.063Z,5.89
2022-10-08T01:29:49.202Z,5.85
2022-10-08T01:32:57.686Z,5.82
2022-10-08T01:36:01.268Z,5.82
2022-10-08T01:39:07.928Z,5.81
2022-10-08T01:42:10.539Z,5.79
2022-10-08T01:45:19.134Z,5.75
2022-10-08T01:48:23.939Z,5.71
2022-10-08T01:51:32.574Z,5.69
2022-10-08T01:54:35.473Z,5.60
2022-10-08T01:57:38.480Z,5.53
2022-10-08T02:00:42.256Z,5.47
2022-10-08T02:04:04.053Z,5.39
2022-10-08T02:07:15.046Z,5.26
2022-10-08T02:10:19.968Z,5.17
2022-10-08T02:13:21.850Z,5.02
2022-10-08T02:16:29.229Z,4.94
2022-10-08T02:19:57.371Z,4.94
2022-10-08T02:23:14.343Z,4.98
2022-10-08T02:26:27.113Z,5.05
2022-10-08T02:29:36.045Z,5.08
2022-10-08T02:32:55.717Z,5.09
2022-10-08T02:35:59.866Z,5.11
2022-10-08T02:39:06.615Z,5.10
2022-10-08T02:42:11.569Z,5.07
2022-10-08T02:45:24.231Z,5.07
2022-10-08T02:48:32.112Z,5.08
2022-10-08T02:51:39.770Z,5.07
2022-10-08T02:54:43.506Z,5.06
2022-10-08T02:57:52.068Z,5.07
2022-10-08T03:00:59.717Z,5.11
2022-10-08T03:04:26.607Z,5.11
2022-10-08T03:07:32.220Z,5.10
2022-10-08T03:10:36.222Z,5.07
2022-10-08T03:13:41.037Z,5.04
2022-10-08T03:16:45.208Z,5.02
2022-10-08T03:19:47.222Z,5.04
2022-10-08T03:22:49.353Z,5.04
2022-10-08T03:25:51.422Z,5.05
2022-10-08T03:28:53.953Z,5.09
2022-10-08T03:31:55.743Z,5.11
2022-10-08T03:34:57.724Z,5.10
2022-10-08T03:37:59.632Z,5.03
2022-10-08T03:41:01.837Z,4.98
2022-10-08T03:44:03.780Z,4.91
2022-10-08T03:47:05.614Z,4.87
2022-10-08T03:50:07.865Z,4.83
2022-10-08T03:53:09.886Z,4.73
2022-10-08T03:56:14.891Z,4.65
2022-10-08T03:59:16.626Z,4.61
2022-10-08T04:02:18.455Z,4.62
2022-10-08T04:05:20.611Z,4.64
2022-10-08T04:08:22.895Z,4.65
2022-10-08T04:11:24.611Z,4.64
2022-10-08T04:14:26.410Z,4.55
2022-10-08T04:17:28.201Z,4.45
2022-10-08T04:20:29.971Z,4.35
2022-10-08T04:23:33.663Z,4.24
2022-10-08T04:26:35.582Z,4.18
2022-10-08T04:29:37.283Z,4.11
2022-10-08T04:32:38.971Z,4.07
2022-10-08T04:35:40.673Z,4.05
2022-10-08T04:38:43.779Z,4.04
2022-10-08T04:41:45.698Z,4.03
2022-10-08T04:44:47.596Z,4.03
2022-10-08T04:47:49.354Z,4.04
2022-10-08T04:51:01.435Z,4.07
2022-10-08T04:54:03.350Z,4.07
2022-10-08T04:57:05.100Z,4.11
2022-10-08T05:00:18.522Z,4.14
2022-10-08T05:03:21.004Z,4.02
2022-10-08T05:06:23.920Z,3.98
2022-10-08T05:09:25.654Z,4.03
2022-10-08T05:12:27.361Z,4.07
2022-10-08T05:15:29.486Z,4.16
2022-10-08T05:18:32.757Z,4.28
2022-10-08T05:21:34.439Z,4.41
2022-10-08T05:24:36.675Z,4.54
2022-10-08T05:27:38.398Z,4.64
2022-10-08T05:30:40.097Z,4.74
2022-10-08T05:33:41.772Z,4.87
2022-10-08T05:36:43.500Z,5.00
2022-10-08T05:39:45.837Z,5.14
2022-10-08T05:42:47.864Z,5.41
2022-10-08T05:45:51.530Z,5.62
2022-10-08T05:48:54.667Z,5.81
2022-10-08T05:51:56.409Z,6.03
2022-10-08T05:54:58.185Z,6.19
2022-10-08T05:58:00.085Z,6.35
2022-10-08T06:01:04.479Z,6.52
2022-10-08T06:04:08.733Z,6.75
2022-10-08T06:07:10.925Z,7.03
2022-10-08T06:10:13.210Z,7.35
2022-10-08T06:13:15.014Z,7.63
2022-10-08T06:16:16.871Z,7.80
2022-10-08T06:19:18.677Z,8.10
2022-10-08T06:22:20.677Z,8.31
2022-10-08T06:25:22.447Z,8.48
2022-10-08T06:28:24.341Z,8.60
2022-10-08T06:31:26.183Z,8.83
2022-10-08T06:34:27.992Z,8.94
2022-10-08T06:37:29.694Z,9.03
2022-10-08T06:40:38.994Z,9.15
2022-10-08T06:43:40.989Z,9.37
2022-10-08T06:46:43.395Z,9.48
2022-10-08T06:49:45.358Z,9.47
2022-10-08T06:52:47.475Z,9.55
2022-10-08T06:55:49.465Z,9.73
2022-10-08T06:58:52.004Z,9.87
2022-10-08T07:01:54.004Z,9.98
2022-10-08T07:04:55.733Z,10.16
2022-10-08T07:07:57.422Z,10.54
2022-10-08T07:11:12.234Z,10.88
2022-10-08T07:14:14.055Z,11.12
2022-10-08T07:17:16.017Z,11.14
2022-10-08T07:20:18.429Z,11.11
2022-10-08T07:23:20.184Z,11.05
2022-10-08T07:26:24.746Z,11.20
2022-10-08T07:29:26.669Z,11.51
2022-10-08T07:32:28.661Z,11.83
2022-10-08T07:35:30.508Z,12.16
2022-10-08T07:38:32.287Z,12.54
2022-10-08T07:41:35.258Z,13.04
2022-10-08T07:44:37.419Z,13.63
2022-10-08T07:47:39.151Z,14.36
2022-10-08T07:50:40.906Z,15.09
2022-10-08T07:53:43.733Z,15.57
2022-10-08T07:56:46.068Z,16.24
2022-10-08T07:59:47.831Z,16.62
2022-10-08T08:02:49.673Z,17.06
2022-10-08T08:05:54.823Z,17.57
2022-10-08T08:08:56.973Z,18.18
2022-10-08T08:11:58.667Z,18.66
2022-10-08T08:15:00.390Z,19.00
2022-10-08T08:18:02.819Z,19.35
2022-10-08T08:21:07.793Z,19.35
2022-10-08T08:24:13.751Z,19.49
2022-10-08T08:27:15.643Z,19.66
2022-10-08T08:30:17.480Z,19.99
2022-10-08T08:33:19.168Z,20.41
2022-10-08T08:36:25.107Z,20.92
2022-10-08T08:39:28.167Z,21.40
2022-10-08T08:42:49.129Z,21.74
2022-10-08T08:45:51.303Z,21.84
2022-10-08T08:48:55.796Z,22.16
2022-10-08T08:51:59.257Z,22.53
2022-10-08T08:55:01.820Z,23.08
2022-10-08T08:58:12.475Z,23.65
2022-10-08T09:01:42.549Z,24.18
2022-10-08T09:04:48.041Z,24.34
2022-10-08T09:07:54.393Z,24.33
2022-10-08T09:11:04.099Z,24.45
2022-10-08T09:14:37.990Z,24.60
2022-10-08T09:17:41.539Z,25.05
2022-10-08T09:20:44.558Z,25.29
2022-10-08T09:23:46.910Z,25.65
2022-10-08T09:26:48.859Z,25.89
2022-10-08T09:29:50.692Z,25.93
2022-10-08T09:32:53.631Z,25.94
2022-10-08T09:35:55.686Z,25.91
2022-10-08T09:38:58.843Z,25.95
2022-10-08T09:42:20.197Z,26.21
2022-10-08T09:45:42.950Z,26.54
2022-10-08T09:48:46.019Z,26.62
2022-10-08T09:51:49.406Z,26.82
2022-10-08T09:55:02.744Z,27.11
2022-10-08T09:58:05.560Z,27.59
2022-10-08T10:01:14.417Z,27.82
2022-10-08T10:04:37.466Z,28.26
2022-10-08T10:07:44.913Z,28.55
2022-10-08T10:10:46.947Z,28.80
2022-10-08T10:13:50.178Z,29.17
2022-10-08T10:16:56.749Z,29.31
2022-10-08T10:20:20.442Z,29.20
2022-10-08T10:23:27.879Z,29.24
2022-10-08T10:26:34.020Z,29.25
2022-10-08T10:30:07.664Z,29.12
2022-10-08T10:33:15.849Z,28.80
2022-10-08T10:36:18.652Z,28.59
2022-10-08T10:39:38.822Z,28.73
2022-10-08T10:43:06.749Z,29.00
2022-10-08T10:46:32.740Z,28.74
2022-10-08T10:49:38.465Z,28.82
2022-10-08T10:53:23.933Z,29.05
2022-10-08T10:56:29.179Z,28.80
2022-10-08T10:59:49.067Z,28.88
2022-10-08T11:03:08.264Z,29.08
2022-10-08T11:06:24.127Z,29.49
2022-10-08T11:09:36.451Z,29.76
2022-10-08T11:12:56.881Z,29.69
2022-10-08T11:16:06.601Z,29.70
2022-10-08T11:19:33.407Z,29.59
2022-10-08T11:23:03.451Z,29.16
2022-10-08T11:26:25.674Z,29.14
2022-10-08T11:30:05.218Z,29.28
2022-10-08T11:33:12.686Z,29.18
2022-10-08T11:36:34.883Z,29.15
2022-10-08T11:39:55.855Z,28.99
2022-10-08T11:43:08.053Z,28.66
2022-10-08T11:46:31.531Z,28.13
2022-10-08T11:49:33.454Z,27.67
2022-10-08T11:52:35.745Z,27.12
2022-10-08T11:55:38.084Z,26.45
2022-10-08T11:58:39.791Z,25.94
2022-10-08T12:01:56.795Z,25.61
2022-10-08T12:05:23.660Z,25.14
2022-10-08T12:08:58.163Z,24.61
2022-10-08T12:12:12.883Z,24.39
2022-10-08T12:15:23.998Z,23.98
2022-10-08T12:18:26.454Z,23.73
2022-10-08T12:21:28.486Z,23.47
2022-10-08T12:24:39.549Z,23.17
2022-10-08T12:27:41.360Z,23.00
2022-10-08T12:30:55.031Z,22.91
2022-10-08T12:34:02.710Z,22.85
2022-10-08T12:37:20.188Z,22.78
2022-10-08T12:40:58.446Z,22.58
2022-10-08T12:44:06.660Z,22.39
2022-10-08T12:47:30.056Z,22.34
2022-10-08T12:50:49.692Z,22.35
2022-10-08T12:53:52.211Z,22.39
2022-10-08T12:56:53.984Z,22.41
2022-10-08T13:00:00.941Z,22.51
2022-10-08T13:03:11.670Z,22.64
2022-10-08T13:06:29.325Z,22.73
2022-10-08T13:09:36.386Z,22.92
2022-10-08T13:12:39.592Z,22.99
2022-10-08T13:15:42.163Z,23.01
2022-10-08T13:18:58.674Z,23.01
2022-10-08T13:22:08.816Z,23.04
2022-10-08T13:25:39.167Z,23.09
2022-10-08T13:28:59.329Z,23.11
2022-10-08T13:32:05.239Z,22.98
2022-10-08T13:35:20.806Z,22.96
2022-10-08T13:38:29.538Z,22.89
2022-10-08T13:41:31.256Z,22.80
2022-10-08T13:44:33.788Z,22.68
2022-10-08T13:47:35.519Z,22.57
2022-10-08T13:50:44.562Z,22.42
2022-10-08T13:53:46.390Z,22.31
2022-10-08T13:56:49.045Z,22.18
2022-10-08T13:59:51.240Z,22.05
2022-10-08T14:02:53.457Z,21.96
2022-10-08T14:05:55.579Z,21.88
2022-10-08T14:08:58.214Z,21.85
2022-10-08T14:12:02.023Z,21.87
2022-10-08T14:15:04.163Z,21.84
2022-10-08T14:18:06.377Z,21.78
2022-10-08T14:21:10.538Z,21.76
2022-10-08T14:24:12.535Z,21.71
2022-10-08T14:27:14.357Z,21.66
2022-10-08T14:30:16.373Z,21.70
2022-10-08T14:33:18.055Z,21.79
2022-10-08T14:36:22.190Z,21.89
2022-10-08T14:39:25.202Z,22.03
2022-10-08T14:42:26.880Z,21.94
2022-10-08T14:45:28.675Z,21.84
2022-10-08T14:48:30.491Z,21.76
2022-10-08T14:51:38.451Z,21.84
2022-10-08T14:54:40.215Z,21.86
2022-10-08T14:57:42.111Z,21.77
2022-10-08T15:00:44.015Z,21.60
2022-10-08T15:03:46.060Z,21.46
2022-10-08T15:06:48.301Z,21.33
2022-10-08T15:09:50.016Z,21.15
2022-10-08T15:12:51.809Z,20.96
2022-10-08T15:15:53.643Z,20.83
2022-10-08T15:18:55.347Z,20.72
2022-10-08T15:21:57.226Z,20.57
2022-10-08T15:24:59.011Z,20.38
2022-10-08T15:28:01.015Z,20.23
2022-10-08T15:31:09.146Z,20.09
2022-10-08T15:34:17.477Z,19.93
2022-10-08T15:37:19.315Z,19.75
2022-10-08T15:40:21.119Z,19.55
2022-10-08T15:43:32.278Z,19.39
2022-10-08T15:46:34.037Z,19.21
2022-10-08T15:49:37.109Z,19.06
2022-10-08T15:52:42.925Z,18.92
2022-10-08T15:55:57.521Z,18.78
2022-10-08T15:59:00.190Z,18.61
2022-10-08T16:02:02.571Z,18.45
2022-10-08T16:05:04.839Z,18.26
2022-10-08T16:08:09.454Z,18.07
2022-10-08T16:11:20.324Z,17.89
2022-10-08T16:14:24.476Z,17.66
2022-10-08T16:17:27.164Z,17.50
2022-10-08T16:20:29.004Z,17.41
2022-10-08T16:23:35.804Z,17.33
2022-10-08T16:26:40.074Z,17.20
2022-10-08T16:29:41.948Z,17.06
2022-10-08T16:32:43.598Z,16.98
2022-10-08T16:35:45.335Z,16.92
2022-10-08T16:38:47.281Z,16.80
2022-10-08T16:41:49.389Z,16.72
2022-10-08T16:44:51.146Z,16.62
2022-10-08T16:47:52.914Z,16.57
2022-10-08T16:50:55.015Z,16.52
2022-10-08T16:53:59.242Z,16.48
2022-10-08T16:57:01.816Z,16.43
2022-10-08T17:00:04.675Z,16.15
2022-10-08T17:03:08.086Z,15.61
2022-10-08T17:06:10.852Z,15.11
2022-10-08T17:09:13.205Z,14.76
2022-10-08T17:12:17.473Z,14.59
2022-10-08T17:15:22.837Z,14.31
2022-10-08T17:18:28.886Z,13.96
2022-10-08T17:21:32.298Z,13.70
2022-10-08T17:24:39.030Z,13.57
2022-10-08T17:27:43.974Z,13.38
2022-10-08T17:30:45.670Z,13.23
2022-10-08T17:33:47.565Z,13.07
2022-10-08T17:36:49.390Z,12.93
2022-10-08T17:39:51.215Z,12.87
2022-10-08T17:42:53.523Z,12.82
2022-10-08T17:45:55.337Z,12.71
2022-10-08T17:48:57.806Z,12.62
2022-10-08T17:51:59.545Z,12.55
2022-10-08T17:55:01.418Z,12.48
2022-10-08T17:58:03.226Z,12.39
2022-10-08T18:01:09.119Z,12.37
2022-10-08T18:04:12.974Z,12.39
2022-10-08T18:07:15.010Z,12.36
2022-10-08T18:10:16.755Z,12.36
2022-10-08T18:13:18.971Z,12.37
2022-10-08T18:16:21.887Z,12.39
2022-10-08T18:19:24.007Z,12.44
2022-10-08T18:22:26.124Z,12.49
2022-10-08T18:25:27.971Z,12.52
2022-10-08T18:28:29.857Z,12.59
2022-10-08T18:31:32.885Z,12.65
2022-10-08T18:34:34.708Z,12.68
2022-10-08T18:37:36.421Z,12.68
2022-10-08T18:40:38.320Z,12.71
2022-10-08T18:43:40.359Z,12.75
2022-10-08T18:46:45.269Z,12.74
2022-10-08T18:49:47.168Z,12.73
2022-10-08T18:52:49.400Z,12.69
2022-10-08T18:55:51.874Z,12.57
2022-10-08T18:58:53.847Z,12.41
2022-10-08T19:01:59.084Z,12.34
2022-10-08T19:05:01.340Z,12.33
2022-10-08T19:08:04.426Z,12.35
2022-10-08T19:11:14.980Z,12.44
2022-10-08T19:14:18.821Z,12.51
2022-10-08T19:17:20.747Z,12.51
2022-10-08T19:20:22.493Z,12.43
2022-10-08T19:23:24.413Z,12.34
2022-10-08T19:26:28.258Z,12.28
2022-10-08T19:29:33.475Z,12.22
2022-10-08T19:32:35.281Z,12.13
2022-10-08T19:35:37.023Z,11.99
2022-10-08T19:38:38.803Z,11.90
2022-10-08T19:41:41.349Z,11.86
2022-10-08T19:44:43.183Z,11.81
2022-10-08T19:47:44.955Z,11.71
2022-10-08T19:50:46.726Z,11.67
2022-10-08T19:53:49.141Z,11.73
2022-10-08T19:56:50.998Z,11.82
2022-10-08T19:59:52.757Z,11.95
2022-10-08T20:02:54.478Z,12.07
2022-10-08T20:05:56.752Z,12.20
2022-10-08T20:09:01.889Z,12.34
2022-10-08T20:12:03.759Z,12.48
2022-10-08T20:15:08.304Z,12.57
2022-10-08T20:18:11.440Z,12.63
2022-10-08T20:21:13.438Z,12.68
2022-10-08T20:24:16.413Z,12.68
2022-10-08T20:27:18.315Z,12.69
2022-10-08T20:30:20.110Z,12.71
2022-10-08T20:33:21.833Z,12.74
2022-10-08T20:36:24.685Z,12.82
2022-10-08T20:39:26.451Z,12.88
2022-10-08T20:42:29.092Z,12.90
2022-10-08T20:45:30.962Z,12.93
2022-10-08T20:48:34.275Z,12.96
2022-10-08T20:51:38.986Z,13.00
2022-10-08T20:54:40.742Z,13.04
2022-10-08T20:57:42.584Z,13.09
2022-10-08T21:00:47.883Z,13.14
2022-10-08T21:03:51.184Z,13.18
2022-10-08T21:06:53.338Z,13.21
2022-10-08T21:09:55.301Z,13.21
2022-10-08T21:12:57.150Z,13.23
2022-10-08T21:16:10.421Z,13.27
2022-10-08T21:19:15.074Z,13.32
2022-10-08T21:22:17.040Z,13.35
2022-10-08T21:25:18.893Z,13.37
2022-10-08T21:28:20.984Z,13.37
2022-10-08T21:31:23.328Z,13.39
2022-10-08T21:34:25.579Z,13.42
2022-10-08T21:37:27.298Z,13.46
2022-10-08T21:40:29.130Z,13.48
2022-10-08T21:43:31.395Z,13.50
2022-10-08T21:46:35.780Z,13.51
2022-10-08T21:49:37.554Z,13.53
2022-10-08T21:52:39.490Z,13.54
2022-10-08T21:55:41.160Z,13.55
2022-10-08T21:58:48.104Z,13.57
2022-10-08T22:01:51.666Z,13.59
2022-10-08T22:04:53.637Z,13.58
2022-10-08T22:07:55.453Z,13.57
2022-10-08T22:10:57.576Z,13.56
2022-10-08T22:13:59.397Z,13.53
2022-10-08T22:17:01.209Z,13.47
2022-10-08T22:20:03.595Z,13.41
2022-10-08T22:23:05.471Z,13.38
2022-10-08T22:26:10.560Z,13.33
2022-10-08T22:29:12.526Z,13.29
2022-10-08T22:32:14.365Z,13.28
2022-10-08T22:35:16.091Z,13.27
2022-10-08T22:38:17.974Z,13.25
2022-10-08T22:41:33.406Z,13.25
2022-10-08T22:44:35.181Z,13.26
2022-10-08T22:47:36.876Z,13.27
2022-10-08T22:50:39.386Z,13.30
2022-10-08T22:53:41.971Z,13.33
2022-10-08T22:56:43.722Z,13.32
2022-10-08T22:59:45.752Z,13.31
2022-10-08T23:02:47.791Z,13.33
2022-10-08T23:06:27.611Z,13.33
2022-10-08T23:09:29.735Z,13.34
2022-10-08T23:12:31.479Z,13.34
2022-10-08T23:15:33.226Z,13.34
2022-10-08T23:18:39.906Z,13.34
2022-10-08T23:21:44.332Z,13.34
2022-10-08T23:24:46.598Z,13.33
2022-10-08T23:27:48.515Z,13.34
2022-10-08T23:30:53.520Z,13.34
2022-10-08T23:33:56.095Z,13.32
2022-10-08T23:36:58.133Z,13.30
2022-10-08T23:40:00.131Z,13.29
2022-10-08T23:43:02.188Z,13.27
2022-10-08T23:46:05.942Z,13.26
2022-10-08T23:49:07.981Z,13.28
2022-10-08T23:52:09.740Z,13.28
2022-10-08T23:55:11.899Z,13.26
2022-10-08T23:58:14.420Z,13.26
